Aviation Digital Data Service (ADDS)

Output produced by METARs form (0136 UTC 26 May 2015)
found at http://aviationweather.gov/adds/metars/
 
KBFD 252325Z 2600/2624 21010G15KT P6SM SCT050 BKN100 
     FM260300 20005KT P6SM SCT050 BKN100 
     FM261000 22005KT P6SM VCSH BKN025 OVC050 
     FM261500 21008KT P6SM SCT050 
     FM261800 20010KT P6SM BKN050